Time;durP1;ratioP1;P1;durP2;ratioP2;P2;SDS_P1;SDS_P2;PMS_P1;PMS_P2;Temp;Humidity;BMP_temperature;BMP_pressure;BME280_temperature;BME280_humidity;BME280_pressure;Samples;Min_cycle;Max_cycle;Signal;HPM_P1;HPM_P2
2021/08/08 00:00:54;;;;;;;4.23;1.40;;;20.10;76.10;;;;;;10503246;28;20207;-69
2021/08/08 00:06:16;;;;;;;2.40;1.10;;;20.10;76.10;;;;;;10518881;28;20674;-68
2021/08/08 00:11:39;;;;;;;4.63;1.40;;;20.10;76.20;;;;;;10498297;28;20579;-68
2021/08/08 00:17:01;;;;;;;3.97;1.20;;;20.10;76.10;;;;;;10522094;28;20211;-68
2021/08/08 00:22:24;;;;;;;2.33;1.00;;;20.10;76.00;;;;;;10525710;28;20683;-68
2021/08/08 00:27:47;;;;;;;3.20;1.07;;;20.10;76.00;;;;;;10497863;28;20216;-68
2021/08/08 00:33:09;;;;;;;3.17;1.40;;;20.10;76.60;;;;;;10540147;28;20202;-68
2021/08/08 00:38:31;;;;;;;2.70;1.30;;;20.10;76.10;;;;;;10580035;28;20222;-69
2021/08/08 00:43:55;;;;;;;3.27;1.23;;;20.00;75.90;;;;;;10553485;28;20714;-68
2021/08/08 00:49:17;;;;;;;2.73;1.37;;;20.00;75.90;;;;;;10495874;28;20224;-68
2021/08/08 00:54:39;;;;;;;1.63;1.20;;;20.00;75.80;;;;;;10499874;28;20564;-68
2021/08/08 01:00:05;;;;;;;2.03;1.33;;;20.00;75.70;;;;;;10495920;28;20692;-69
2021/08/08 01:05:34;;;;;;;3.00;1.67;;;20.00;75.60;;;;;;10520848;28;20278;-68
2021/08/08 01:10:56;;;;;;;4.50;1.50;;;20.00;75.50;;;;;;10536591;28;20717;-68
2021/08/08 01:16:21;;;;;;;2.37;1.40;;;20.00;75.40;;;;;;10536440;28;20196;-69
2021/08/08 01:21:45;;;;;;;1.90;1.40;;;20.00;75.40;;;;;;10550062;28;20224;-68
2021/08/08 01:27:09;;;;;;;2.27;1.50;;;20.00;75.40;;;;;;10494990;28;20246;-68
2021/08/08 01:32:33;;;;;;;4.13;1.40;;;20.00;75.30;;;;;;10494286;28;20564;-68
2021/08/08 01:37:55;;;;;;;3.93;1.50;;;20.00;75.20;;;;;;10494875;28;20687;-68
2021/08/08 01:43:25;;;;;;;3.13;1.37;;;19.90;75.00;;;;;;10496804;28;20216;-68
2021/08/08 01:48:51;;;;;;;4.10;1.30;;;20.00;75.10;;;;;;10494742;28;20216;-69
2021/08/08 01:54:13;;;;;;;3.43;1.43;;;19.90;74.90;;;;;;10495775;28;20198;-68
2021/08/08 01:59:37;;;;;;;2.40;1.37;;;19.90;74.90;;;;;;10502109;28;20212;-68
2021/08/08 02:04:59;;;;;;;4.07;1.60;;;19.90;75.00;;;;;;10522758;28;20188;-68
2021/08/08 02:10:21;;;;;;;2.40;1.40;;;19.90;75.00;;;;;;10539180;28;20211;-68
2021/08/08 02:15:45;;;;;;;3.97;1.60;;;19.90;75.00;;;;;;10533255;28;20203;-69
2021/08/08 02:21:07;;;;;;;3.47;1.67;;;19.90;74.90;;;;;;10535805;28;20227;-68
2021/08/08 02:26:29;;;;;;;4.60;1.50;;;19.90;74.80;;;;;;10535941;28;20207;-68
2021/08/08 02:31:53;;;;;;;2.77;1.40;;;19.90;74.60;;;;;;10535176;28;20216;-68
2021/08/08 02:37:15;;;;;;;1.10;1.00;;;19.90;74.40;;;;;;10536258;28;20310;-68
2021/08/08 02:42:37;;;;;;;3.23;1.30;;;19.80;74.10;;;;;;10492062;28;20583;-68
2021/08/08 02:48:00;;;;;;;3.43;1.10;;;19.90;74.00;;;;;;10494208;28;20227;-68
2021/08/08 02:53:22;;;;;;;1.87;1.00;;;19.90;74.40;;;;;;10492758;28;20214;-69
2021/08/08 02:58:44;;;;;;;4.40;1.20;;;19.80;73.60;;;;;;10517102;28;20698;-68
2021/08/08 03:04:08;;;;;;;1.00;0.90;;;19.80;73.30;;;;;;10541712;28;20689;-69
2021/08/08 03:09:31;;;;;;;2.10;0.70;;;19.80;73.20;;;;;;10575376;28;20225;-68
2021/08/08 03:14:53;;;;;;;1.83;0.93;;;19.80;73.00;;;;;;10513433;28;20200;-68
2021/08/08 03:20:19;;;;;;;3.57;1.10;;;19.80;72.90;;;;;;10492776;28;20226;-68
2021/08/08 03:25:42;;;;;;;1.20;0.80;;;19.80;72.80;;;;;;10514296;28;20186;-68
2021/08/08 03:31:04;;;;;;;1.37;0.90;;;19.80;72.70;;;;;;10582608;28;20211;-69
2021/08/08 03:36:27;;;;;;;1.37;1.10;;;19.80;72.60;;;;;;10582303;28;20210;-68
2021/08/08 03:41:49;;;;;;;1.83;0.90;;;19.80;72.50;;;;;;10582458;28;20218;-68
2021/08/08 03:47:11;;;;;;;2.27;1.10;;;19.80;72.40;;;;;;10578966;28;20202;-68
2021/08/08 03:52:35;;;;;;;2.57;1.00;;;19.70;72.30;;;;;;10578258;28;20211;-68
2021/08/08 03:57:57;;;;;;;4.83;1.10;;;19.70;72.30;;;;;;10532196;28;20282;-68
2021/08/08 04:03:19;;;;;;;2.00;0.80;;;19.70;72.20;;;;;;10540217;28;20215;-68
2021/08/08 04:08:42;;;;;;;1.37;0.87;;;19.70;72.20;;;;;;10520348;28;20223;-68
2021/08/08 04:14:05;;;;;;;3.83;1.10;;;19.70;72.20;;;;;;10520442;28;20192;-68
2021/08/08 04:19:27;;;;;;;2.60;1.03;;;19.70;72.20;;;;;;10558173;28;20721;-68
2021/08/08 04:24:50;;;;;;;2.73;0.83;;;19.70;72.20;;;;;;10504685;28;20591;-68
2021/08/08 04:30:13;;;;;;;4.80;0.80;;;19.70;72.30;;;;;;10497166;28;20220;-68
2021/08/08 04:35:37;;;;;;;3.00;0.80;;;19.70;72.40;;;;;;10497139;28;20203;-68
2021/08/08 04:41:01;;;;;;;1.10;0.60;;;19.70;72.40;;;;;;10497153;28;20587;-69
2021/08/08 04:46:23;;;;;;;1.73;0.80;;;19.70;72.60;;;;;;10499195;28;20196;-69
2021/08/08 04:51:45;;;;;;;2.17;0.90;;;19.70;72.80;;;;;;10497465;28;20227;-68
2021/08/08 04:57:08;;;;;;;1.57;0.80;;;19.70;73.10;;;;;;10527148;28;20222;-69
2021/08/08 05:02:30;;;;;;;1.70;0.80;;;19.80;73.30;;;;;;10538264;28;20215;-68
2021/08/08 05:07:52;;;;;;;2.63;0.80;;;19.80;73.60;;;;;;10536838;28;20231;-68
2021/08/08 05:13:16;;;;;;;1.90;0.70;;;19.80;73.80;;;;;;10537592;28;20195;-68
2021/08/08 05:18:38;;;;;;;1.90;0.53;;;19.80;73.90;;;;;;10511702;28;20220;-68
2021/08/08 05:24:00;;;;;;;1.50;0.80;;;19.80;74.10;;;;;;10525897;28;20219;-68
2021/08/08 05:29:24;;;;;;;0.97;0.63;;;19.80;74.20;;;;;;10495313;28;20227;-68
2021/08/08 05:34:47;;;;;;;3.80;0.90;;;19.80;74.30;;;;;;10495544;28;20234;-68
2021/08/08 05:40:11;;;;;;;1.53;0.73;;;19.80;74.40;;;;;;10497376;28;20299;-68
2021/08/08 05:45:34;;;;;;;1.53;0.83;;;19.80;74.50;;;;;;10494895;28;20224;-70
2021/08/08 05:50:56;;;;;;;4.53;1.00;;;19.80;74.80;;;;;;10493880;28;20231;-70
2021/08/08 05:56:18;;;;;;;1.23;0.70;;;19.80;74.90;;;;;;10523878;28;20200;-71
2021/08/08 06:01:42;;;;;;;2.87;0.87;;;19.80;74.90;;;;;;10535128;28;20219;-69
2021/08/08 06:07:04;;;;;;;1.50;0.80;;;19.80;75.00;;;;;;10526015;28;20662;-69
2021/08/08 06:12:26;;;;;;;1.90;0.83;;;19.80;75.00;;;;;;10523631;28;20671;-69
2021/08/08 06:17:50;;;;;;;1.30;0.83;;;19.90;75.20;;;;;;10521782;28;20701;-69
2021/08/08 06:23:12;;;;;;;2.63;1.47;;;19.90;75.20;;;;;;10509697;28;20239;-69
2021/08/08 06:28:34;;;;;;;3.73;1.00;;;19.90;75.20;;;;;;10541030;28;20218;-69
2021/08/08 06:33:57;;;;;;;2.53;1.07;;;19.90;75.30;;;;;;10539751;28;20199;-71
2021/08/08 06:39:19;;;;;;;1.80;1.07;;;19.90;75.40;;;;;;10533699;28;20219;-70
2021/08/08 06:44:41;;;;;;;2.97;1.10;;;19.90;75.60;;;;;;10532865;28;20211;-70
2021/08/08 06:50:06;;;;;;;3.37;1.00;;;19.90;75.60;;;;;;10493199;28;20223;-70
2021/08/08 06:55:28;;;;;;;1.93;1.13;;;19.90;75.70;;;;;;10512173;28;20197;-69
2021/08/08 07:00:50;;;;;;;1.93;1.10;;;19.90;75.70;;;;;;10542127;28;20215;-70
2021/08/08 07:06:13;;;;;;;2.70;1.30;;;19.90;75.80;;;;;;10542403;28;20212;-70
2021/08/08 07:11:35;;;;;;;6.07;1.87;;;19.90;75.90;;;;;;10542033;28;20212;-70
2021/08/08 07:16:58;;;;;;;2.23;1.43;;;19.90;76.00;;;;;;10505027;28;20552;-69
2021/08/08 07:22:21;;;;;;;3.77;1.63;;;19.90;76.10;;;;;;10518006;28;20218;-69
2021/08/08 07:27:43;;;;;;;3.83;1.80;;;19.90;76.10;;;;;;10543119;28;20232;-70
2021/08/08 07:33:06;;;;;;;2.90;1.83;;;19.90;76.00;;;;;;10542349;28;20714;-70
2021/08/08 07:38:29;;;;;;;4.83;1.57;;;19.90;75.90;;;;;;10542463;28;20220;-70
2021/08/08 07:43:51;;;;;;;2.50;1.43;;;20.00;75.90;;;;;;10513535;28;20684;-69
2021/08/08 07:49:13;;;;;;;3.43;1.63;;;20.00;76.50;;;;;;10499949;28;20233;-69
2021/08/08 07:54:37;;;;;;;3.63;1.73;;;20.00;75.80;;;;;;10516056;28;20200;-69
2021/08/08 07:59:59;;;;;;;4.00;2.00;;;20.00;75.80;;;;;;10502485;28;20243;-70
2021/08/08 08:05:21;;;;;;;4.00;2.00;;;20.00;75.70;;;;;;10498597;28;20216;-70
2021/08/08 08:10:45;;;;;;;4.00;2.20;;;20.00;75.70;;;;;;10529647;28;20227;-69
2021/08/08 08:16:07;;;;;;;4.67;2.00;;;20.00;75.70;;;;;;10519430;28;20268;-70
2021/08/08 08:21:29;;;;;;;4.67;2.20;;;20.00;75.60;;;;;;10508032;28;20223;-69
2021/08/08 08:26:52;;;;;;;5.03;2.10;;;20.10;75.70;;;;;;10516111;28;20196;-70
2021/08/08 08:32:15;;;;;;;3.70;1.77;;;20.10;75.80;;;;;;10533877;28;20202;-70
2021/08/08 08:37:37;;;;;;;3.13;2.00;;;20.00;75.70;;;;;;10538859;28;20809;-70
2021/08/08 08:43:03;;;;;;;2.97;1.80;;;20.10;75.80;;;;;;10515791;28;20243;-70
2021/08/08 08:48:27;;;;;;;3.97;2.03;;;20.10;75.90;;;;;;10498747;28;20208;-70
2021/08/08 08:53:49;;;;;;;3.07;1.90;;;20.10;75.80;;;;;;10537982;28;20187;-70
2021/08/08 08:59:13;;;;;;;3.60;2.10;;;20.10;75.80;;;;;;10528990;28;20219;-70
2021/08/08 09:04:35;;;;;;;3.77;2.10;;;20.10;75.80;;;;;;10510729;28;20224;-69
2021/08/08 09:09:58;;;;;;;3.27;1.80;;;20.10;75.80;;;;;;10495408;28;20212;-69
2021/08/08 09:15:32;;;;;;;2.80;1.93;;;20.10;75.80;;;;;;10495396;28;20200;-70
2021/08/08 09:20:54;;;;;;;3.10;2.03;;;20.10;75.80;;;;;;10499223;28;20215;-70
2021/08/08 09:26:27;;;;;;;5.00;2.47;;;20.10;75.80;;;;;;10537492;28;20219;-70
2021/08/08 09:31:51;;;;;;;5.33;2.47;;;20.10;75.80;;;;;;10535109;28;20203;-70
2021/08/08 09:37:19;;;;;;;3.17;1.93;;;20.10;75.70;;;;;;10536393;28;20294;-70
2021/08/08 09:42:46;;;;;;;7.03;2.37;;;20.10;75.70;;;;;;10535072;28;20690;-69
2021/08/08 09:48:11;;;;;;;4.33;2.03;;;20.10;75.70;;;;;;10529094;28;20239;-69
2021/08/08 09:53:33;;;;;;;4.17;2.20;;;20.10;76.20;;;;;;10504425;28;20195;-70
2021/08/08 09:59:05;;;;;;;2.93;2.03;;;20.10;75.60;;;;;;10528132;28;20223;-70
2021/08/08 10:04:33;;;;;;;3.93;1.90;;;20.10;75.70;;;;;;10537753;28;20714;-70
2021/08/08 10:09:58;;;;;;;3.73;2.07;;;20.10;75.60;;;;;;10578477;28;20215;-70
2021/08/08 10:15:20;;;;;;;4.10;1.97;;;20.10;75.60;;;;;;10577142;28;20190;-70
2021/08/08 10:20:44;;;;;;;3.47;2.00;;;20.10;75.70;;;;;;10555955;28;20226;-69
2021/08/08 10:26:09;;;;;;;3.73;2.10;;;20.10;75.70;;;;;;10528594;28;20211;-69
2021/08/08 10:31:33;;;;;;;3.93;2.23;;;20.10;75.70;;;;;;10511752;28;20215;-69
2021/08/08 10:37:09;;;;;;;4.60;1.90;;;20.10;75.70;;;;;;10533283;28;20195;-69
2021/08/08 10:42:41;;;;;;;4.20;2.00;;;20.10;75.70;;;;;;10533380;28;20216;-70
2021/08/08 10:48:06;;;;;;;4.70;1.90;;;20.20;75.70;;;;;;10493787;28;20220;-69
2021/08/08 10:53:31;;;;;;;5.00;2.00;;;20.20;75.70;;;;;;10501504;28;20204;-69
2021/08/08 10:58:54;;;;;;;4.97;2.57;;;20.10;75.60;;;;;;10528043;28;20215;-69
2021/08/08 11:04:16;;;;;;;3.07;1.83;;;20.20;75.60;;;;;;10516665;28;20224;-69
2021/08/08 11:09:41;;;;;;;3.37;2.07;;;20.20;75.60;;;;;;10504712;28;20221;-69
2021/08/08 11:15:04;;;;;;;3.70;2.47;;;20.10;75.40;;;;;;10509312;28;20192;-69
2021/08/08 11:20:27;;;;;;;3.97;2.50;;;20.20;75.40;;;;;;10531845;28;20215;-69
2021/08/08 11:25:51;;;;;;;5.20;2.43;;;20.20;75.30;;;;;;10491696;28;20711;-69
2021/08/08 11:31:19;;;;;;;3.00;2.27;;;20.20;75.20;;;;;;10491790;28;20216;-69
2021/08/08 11:36:42;;;;;;;4.03;2.53;;;20.20;75.20;;;;;;10492093;28;20268;-69
2021/08/08 11:42:08;;;;;;;5.10;2.77;;;20.20;75.60;;;;;;10506124;28;20330;-69
2021/08/08 11:47:30;;;;;;;3.97;2.40;;;20.20;75.00;;;;;;10516702;28;20226;-69
2021/08/08 11:52:52;;;;;;;5.83;2.30;;;20.20;75.10;;;;;;10539849;28;20574;-69
2021/08/08 11:58:15;;;;;;;5.10;2.30;;;20.20;75.00;;;;;;10512452;28;20223;-69
2021/08/08 12:03:38;;;;;;;4.20;2.23;;;20.20;75.00;;;;;;10528237;28;20213;-69
2021/08/08 12:09:00;;;;;;;4.00;2.40;;;20.20;74.90;;;;;;10507697;28;20211;-69
2021/08/08 12:14:33;;;;;;;5.60;2.60;;;20.20;74.90;;;;;;10570455;28;20191;-69
2021/08/08 12:19:57;;;;;;;4.97;2.50;;;20.20;75.00;;;;;;10524900;28;20221;-69
2021/08/08 12:25:22;;;;;;;9.80;3.03;;;20.20;75.10;;;;;;10507117;28;20235;-69
2021/08/08 12:30:45;;;;;;;8.87;3.33;;;20.20;76.00;;;;;;10526140;28;20220;-69
2021/08/08 12:36:12;;;;;;;7.60;3.63;;;20.20;76.40;;;;;;10534181;28;20215;-68
2021/08/08 12:41:38;;;;;;;10.60;3.57;;;20.20;77.20;;;;;;10522000;28;20212;-69
2021/08/08 12:47:03;;;;;;;5.40;2.90;;;20.20;76.90;;;;;;10537525;28;20219;-69
2021/08/08 12:52:25;;;;;;;7.40;3.10;;;20.20;76.10;;;;;;10538100;28;20210;-69
2021/08/08 12:57:49;;;;;;;4.40;2.80;;;20.30;75.90;;;;;;10495121;28;20216;-69
2021/08/08 13:03:12;;;;;;;6.97;2.53;;;20.30;75.70;;;;;;10553712;28;20301;-72
2021/08/08 13:08:34;;;;;;;17.63;3.67;;;20.30;75.60;;;;;;10568760;28;21365;-66
2021/08/08 13:13:57;;;;;;;6.20;2.77;;;20.60;75.50;;;;;;10495404;28;20196;-66
2021/08/08 13:19:20;;;;;;;6.90;2.93;;;20.50;75.10;;;;;;10533470;28;20224;-66
2021/08/08 13:24:42;;;;;;;9.33;3.27;;;20.40;75.70;;;;;;10532172;28;20242;-66
2021/08/08 13:30:06;;;;;;;13.40;4.07;;;20.40;75.90;;;;;;10537041;28;20724;-63
2021/08/08 13:35:29;;;;;;;13.73;4.15;;;20.30;76.00;;;;;;10513493;28;20414;-65
2021/08/08 13:40:52;;;;;;;12.13;3.27;;;20.70;75.10;;;;;;10554211;28;20219;-64
2021/08/08 13:46:14;;;;;;;21.50;4.22;;;21.00;74.50;;;;;;10526977;28;20437;-63
2021/08/08 13:51:37;;;;;;;20.17;4.33;;;21.20;74.00;;;;;;10545858;28;20223;-63
2021/08/08 13:57:00;;;;;;;17.47;3.80;;;21.00;75.20;;;;;;10533547;28;20350;-63
2021/08/08 14:02:22;;;;;;;13.43;4.07;;;21.00;76.10;;;;;;10529977;28;20214;-64
2021/08/08 14:07:45;;;;;;;9.00;2.50;;;20.80;75.40;;;;;;10526932;28;20230;-62
2021/08/08 14:13:07;;;;;;;6.93;2.67;;;20.70;73.70;;;;;;10534794;28;20196;-62
2021/08/08 14:18:30;;;;;;;7.43;2.63;;;20.70;72.40;;;;;;10535179;28;20733;-62
2021/08/08 14:23:53;;;;;;;5.93;2.57;;;20.60;71.50;;;;;;10523249;28;20622;-64
2021/08/08 14:29:15;;;;;;;4.57;1.93;;;20.60;70.80;;;;;;10512107;28;20220;-64
2021/08/08 14:34:37;;;;;;;4.43;2.17;;;20.60;70.10;;;;;;10516799;28;20575;-64
2021/08/08 14:40:00;;;;;;;5.77;2.07;;;20.60;69.60;;;;;;10535325;28;20215;-64
2021/08/08 14:45:22;;;;;;;6.90;2.20;;;20.60;69.20;;;;;;10523255;28;20215;-64
2021/08/08 14:50:45;;;;;;;5.27;2.13;;;20.60;68.80;;;;;;10512703;28;20224;-64
2021/08/08 14:56:08;;;;;;;4.03;2.00;;;20.60;68.40;;;;;;10511638;28;20192;-66
2021/08/08 15:01:30;;;;;;;4.00;1.83;;;20.60;68.20;;;;;;10516362;28;20216;-64
2021/08/08 15:06:52;;;;;;;5.97;2.40;;;20.70;68.00;;;;;;10517648;28;20224;-64
2021/08/08 15:12:16;;;;;;;4.17;2.07;;;20.70;67.70;;;;;;10491896;28;20196;-66
2021/08/08 15:17:38;;;;;;;5.37;1.90;;;20.70;67.50;;;;;;10499137;28;20204;-64
2021/08/08 15:23:00;;;;;;;5.27;1.80;;;20.70;67.30;;;;;;10519495;28;20208;-65
2021/08/08 15:28:23;;;;;;;4.20;2.20;;;20.70;67.10;;;;;;10500101;28;20219;-66
2021/08/08 15:33:45;;;;;;;4.63;2.00;;;20.70;66.90;;;;;;10513656;28;20196;-65
2021/08/08 15:39:08;;;;;;;5.20;2.03;;;20.70;66.90;;;;;;10541945;28;20219;-65
2021/08/08 15:44:31;;;;;;;5.07;2.10;;;20.60;69.00;;;;;;10518555;28;20239;-65
2021/08/08 15:49:53;;;;;;;5.23;2.17;;;20.60;68.70;;;;;;10556419;28;20227;-65
2021/08/08 15:55:15;;;;;;;4.10;1.80;;;20.60;67.90;;;;;;10512382;28;20192;-69
2021/08/08 16:00:39;;;;;;;3.60;1.77;;;20.70;67.30;;;;;;10529461;28;20218;-69
2021/08/08 16:06:01;;;;;;;6.18;2.10;;;20.70;66.90;;;;;;10522604;28;20434;-67
2021/08/08 16:11:23;;;;;;;6.50;2.30;;;21.00;67.90;;;;;;10518498;28;20425;-66
2021/08/08 16:16:46;;;;;;;3.43;1.80;;;21.10;67.90;;;;;;10540507;28;20426;-67
2021/08/08 16:22:08;;;;;;;3.27;1.73;;;20.90;67.30;;;;;;10543108;28;20198;-66
2021/08/08 16:27:30;;;;;;;6.07;2.00;;;20.80;67.00;;;;;;10529427;28;20243;-64
2021/08/08 16:32:54;;;;;;;2.87;1.77;;;20.70;66.60;;;;;;10531204;28;20202;-64
2021/08/08 16:38:17;;;;;;;5.45;2.35;;;20.70;66.40;;;;;;10537506;28;20420;-65
2021/08/08 16:43:39;;;;;;;3.00;1.60;;;21.00;65.90;;;;;;10528866;28;20288;-65
2021/08/08 16:49:02;;;;;;;3.37;2.00;;;20.80;67.70;;;;;;10539064;28;20224;-65
2021/08/08 16:54:25;;;;;;;3.40;1.90;;;20.60;67.80;;;;;;10538994;28;20265;-64
2021/08/08 16:59:47;;;;;;;3.10;1.60;;;20.60;67.10;;;;;;10538773;28;20403;-63
2021/08/08 17:05:11;;;;;;;3.53;2.10;;;20.60;66.70;;;;;;10507988;28;20434;-64
2021/08/08 17:10:35;;;;;;;3.10;1.70;;;20.90;66.00;;;;;;10495930;28;20861;-63
2021/08/08 17:15:57;;;;;;;2.77;1.77;;;20.70;67.60;;;;;;10495405;28;20271;-64
2021/08/08 17:21:20;;;;;;;4.13;1.90;;;20.60;67.80;;;;;;10503715;28;20698;-64
2021/08/08 17:26:42;;;;;;;2.73;1.60;;;20.60;67.10;;;;;;10536165;28;20444;-63
2021/08/08 17:32:05;;;;;;;3.87;1.80;;;20.70;66.40;;;;;;10511822;28;20220;-64
2021/08/08 17:37:29;;;;;;;4.00;1.90;;;20.60;67.90;;;;;;10492642;28;21832;-64
2021/08/08 17:42:51;;;;;;;9.90;1.77;;;21.00;66.50;;;;;;10494364;28;20193;-64
2021/08/08 17:48:14;;;;;;;6.17;1.93;;;20.80;66.30;;;;;;10493826;28;20407;-64
2021/08/08 17:53:38;;;;;;;2.50;1.73;;;21.00;65.90;;;;;;10495037;28;20583;-65
2021/08/08 17:59:00;;;;;;;2.80;1.60;;;20.70;67.60;;;;;;10495695;28;20353;-66
2021/08/08 18:04:22;;;;;;;4.47;1.27;;;20.60;67.60;;;;;;10493964;28;20588;-65
2021/08/08 18:09:45;;;;;;;3.23;1.67;;;20.60;66.80;;;;;;10533736;28;20198;-65
2021/08/08 18:15:08;;;;;;;3.80;1.60;;;20.60;68.10;;;;;;10535245;28;20420;-65
2021/08/08 18:20:30;;;;;;;3.40;1.47;;;20.80;67.50;;;;;;10534216;28;20208;-64
2021/08/08 18:25:54;;;;;;;2.37;1.30;;;20.60;66.70;;;;;;10494903;28;20220;-64
2021/08/08 18:31:16;;;;;;;3.10;1.70;;;20.60;67.60;;;;;;10525196;28;20419;-65
2021/08/08 18:36:38;;;;;;;3.03;1.50;;;20.50;68.40;;;;;;10521074;28;20667;-65
2021/08/08 18:42:02;;;;;;;4.38;1.73;;;20.50;67.50;;;;;;10533339;28;20412;-65
2021/08/08 18:47:24;;;;;;;3.40;1.70;;;20.80;66.60;;;;;;10535411;28;20211;-65
2021/08/08 18:52:48;;;;;;;2.27;1.50;;;20.60;67.90;;;;;;10534172;28;20203;-66
2021/08/08 18:58:11;;;;;;;2.57;1.30;;;20.50;68.00;;;;;;10534588;28;20337;-65
2021/08/08 19:03:34;;;;;;;2.53;1.23;;;20.50;67.20;;;;;;10534019;28;20273;-64
2021/08/08 19:08:56;;;;;;;3.30;1.40;;;20.60;66.90;;;;;;10533991;28;20219;-65
2021/08/08 19:14:19;;;;;;;2.37;1.40;;;20.50;68.30;;;;;;10529233;28;20409;-61
2021/08/08 19:19:41;;;;;;;3.03;1.50;;;20.90;66.60;;;;;;10532200;28;20215;-64
2021/08/08 19:25:04;;;;;;;2.58;1.50;;;20.70;66.00;;;;;;10511690;28;20438;-61
2021/08/08 19:30:28;;;;;;;2.65;1.30;;;21.20;65.80;;;;;;10517788;28;20431;-63
2021/08/08 19:35:50;;;;;;;1.73;1.00;;;20.90;67.20;;;;;;10492681;28;20841;-63
2021/08/08 19:41:12;;;;;;;1.97;1.20;;;20.70;66.80;;;;;;10520345;28;20219;-63
2021/08/08 19:46:35;;;;;;;1.92;1.30;;;20.70;66.30;;;;;;10529251;28;20437;-62
2021/08/08 19:51:57;;;;;;;1.80;1.00;;;21.10;66.00;;;;;;10531643;28;20228;-62
2021/08/08 19:57:19;;;;;;;1.43;1.10;;;20.80;67.40;;;;;;10532521;28;20192;-63
2021/08/08 20:02:44;;;;;;;1.73;1.00;;;20.60;67.10;;;;;;10532262;28;20204;-62
2021/08/08 20:08:06;;;;;;;2.17;1.20;;;20.60;66.60;;;;;;10539064;28;20544;-63
2021/08/08 20:13:30;;;;;;;2.03;1.10;;;21.10;66.10;;;;;;10534274;28;20429;-63
2021/08/08 20:18:53;;;;;;;1.90;1.20;;;20.90;67.40;;;;;;10534490;28;20231;-62
2021/08/08 20:24:15;;;;;;;1.70;1.10;;;20.70;66.90;;;;;;10540865;28;20211;-62
2021/08/08 20:29:37;;;;;;;2.03;1.27;;;20.60;66.30;;;;;;10530649;28;20803;-62
2021/08/08 20:35:01;;;;;;;2.33;1.13;;;21.30;65.90;;;;;;10538682;28;20682;-62
2021/08/08 20:40:24;;;;;;;1.53;1.10;;;20.90;67.10;;;;;;10540369;28;20613;-61
2021/08/08 20:45:46;;;;;;;1.77;1.13;;;20.70;66.60;;;;;;10532772;28;20444;-61
2021/08/08 20:51:10;;;;;;;1.80;1.20;;;20.90;66.00;;;;;;10529589;28;20418;-62
2021/08/08 20:56:32;;;;;;;1.73;1.13;;;21.30;65.80;;;;;;10529629;28;20746;-59
2021/08/08 21:01:54;;;;;;;1.57;0.90;;;21.50;64.30;;;;;;10529153;28;20212;-61
2021/08/08 21:07:18;;;;;;;1.73;0.90;;;21.00;65.00;;;;;;10500446;28;20594;-63
2021/08/08 21:12:40;;;;;;;1.30;1.00;;;20.80;67.00;;;;;;10524704;28;20552;-62
2021/08/08 21:18:02;;;;;;;1.63;0.90;;;20.60;67.60;;;;;;10555322;28;20567;-63
2021/08/08 21:23:25;;;;;;;1.10;0.97;;;20.60;66.80;;;;;;10536307;28;20575;-61
2021/08/08 21:28:48;;;;;;;1.42;1.10;;;20.60;67.00;;;;;;10530199;28;20410;-61
2021/08/08 21:34:10;;;;;;;0.93;0.93;;;20.60;68.20;;;;;;10503297;28;20192;-62
2021/08/08 21:39:34;;;;;;;1.13;0.90;;;20.60;67.40;;;;;;10499016;28;20220;-63
2021/08/08 21:44:57;;;;;;;1.00;0.70;;;20.60;66.90;;;;;;10513230;28;20815;-63
2021/08/08 21:50:19;;;;;;;1.48;1.00;;;20.50;68.20;;;;;;10528064;28;20421;-62
2021/08/08 21:55:42;;;;;;;1.20;0.90;;;21.20;65.40;;;;;;10510617;28;20188;-62
2021/08/08 22:01:04;;;;;;;1.00;0.93;;;20.90;65.80;;;;;;10508052;28;20236;-62
2021/08/08 22:06:26;;;;;;;1.07;0.97;;;20.70;67.70;;;;;;10502648;28;20212;-62
2021/08/08 22:11:50;;;;;;;1.10;1.00;;;20.60;67.40;;;;;;10501853;28;20220;-62
2021/08/08 22:17:12;;;;;;;0.90;0.90;;;20.60;66.60;;;;;;10506552;28;20189;-62
2021/08/08 22:22:34;;;;;;;1.80;1.10;;;20.60;67.90;;;;;;10513122;28;20415;-63
2021/08/08 22:27:58;;;;;;;1.37;1.00;;;21.00;66.60;;;;;;10526637;28;20216;-63
2021/08/08 22:33:20;;;;;;;1.30;1.00;;;20.80;66.10;;;;;;10521879;28;20431;-62
2021/08/08 22:38:42;;;;;;;1.55;1.00;;;21.20;65.90;;;;;;10520044;28;20414;-62
2021/08/08 22:44:06;;;;;;;1.30;0.97;;;21.10;67.00;;;;;;10517529;28;20207;-62
2021/08/08 22:49:28;;;;;;;0.90;0.90;;;20.80;66.10;;;;;;10540117;28;20235;-62
2021/08/08 22:54:50;;;;;;;1.00;0.80;;;20.70;66.70;;;;;;10534935;28;20417;-62
2021/08/08 23:00:16;;;;;;;1.00;0.90;;;20.70;67.80;;;;;;10535787;28;20214;-63
2021/08/08 23:05:38;;;;;;;1.10;0.90;;;20.60;67.00;;;;;;10576354;28;20427;-62
2021/08/08 23:11:00;;;;;;;0.90;0.80;;;20.80;66.40;;;;;;10574556;28;20566;-63
2021/08/08 23:16:24;;;;;;;1.10;0.80;;;20.60;67.80;;;;;;10569497;28;20415;-63
2021/08/08 23:21:46;;;;;;;0.93;0.80;;;21.10;65.70;;;;;;10550451;28;20223;-62
2021/08/08 23:27:08;;;;;;;1.13;0.83;;;20.80;65.50;;;;;;10492068;28;20681;-63
2021/08/08 23:32:33;;;;;;;0.90;0.80;;;20.70;67.30;;;;;;10502663;28;20192;-62
2021/08/08 23:37:55;;;;;;;1.23;1.07;;;20.60;67.70;;;;;;10493997;28;20228;-63
2021/08/08 23:43:17;;;;;;;0.70;0.70;;;20.60;66.80;;;;;;10504510;28;20425;-62
2021/08/08 23:48:40;;;;;;;1.00;0.83;;;21.10;66.10;;;;;;10532723;28;20432;-62
2021/08/08 23:54:02;;;;;;;1.30;0.90;;;21.10;66.60;;;;;;10550498;28;20184;-63
2021/08/08 23:59:25;;;;;;;0.95;0.90;;;20.80;66.10;;;;;;10498809;28;20410;-62
